createdAt,value
2018-11-04T00:01:36.641Z,21.57
2018-11-04T00:04:05.902Z,20.90
2018-11-04T00:06:35.029Z,20.73
2018-11-04T00:09:05.382Z,21.80
2018-11-04T00:11:34.583Z,21.83
2018-11-04T00:14:04.125Z,21.07
2018-11-04T00:16:33.313Z,21.47
2018-11-04T00:19:02.485Z,23.07
2018-11-04T00:21:31.661Z,21.30
2018-11-04T00:24:00.873Z,23.30
2018-11-04T00:26:30.078Z,23.03
2018-11-04T00:28:59.275Z,22.47
2018-11-04T00:31:28.541Z,21.40
2018-11-04T00:33:57.753Z,19.60
2018-11-04T00:36:26.947Z,21.40
2018-11-04T00:38:56.174Z,20.90
2018-11-04T00:41:25.407Z,20.33
2018-11-04T00:43:54.614Z,22.17
2018-11-04T00:46:23.801Z,22.47
2018-11-04T00:48:53.008Z,22.33
2018-11-04T00:51:22.224Z,22.05
2018-11-04T00:53:51.618Z,22.80
2018-11-04T00:56:20.802Z,22.30
2018-11-04T00:58:50.023Z,22.73
2018-11-04T01:01:19.291Z,22.77
2018-11-04T01:03:48.464Z,23.50
2018-11-04T01:06:17.720Z,24.70
2018-11-04T01:08:46.952Z,24.03
2018-11-04T01:11:16.115Z,24.63
2018-11-04T01:13:45.364Z,23.10
2018-11-04T01:16:14.687Z,23.87
2018-11-04T01:18:43.893Z,25.27
2018-11-04T01:21:13.134Z,25.07
2018-11-04T01:23:42.295Z,26.87
2018-11-04T01:26:11.559Z,24.83
2018-11-04T01:28:40.787Z,25.40
2018-11-04T01:31:10.090Z,26.00
2018-11-04T01:33:39.220Z,24.77
2018-11-04T01:36:08.417Z,24.60
2018-11-04T01:38:37.952Z,23.27
2018-11-04T01:41:07.332Z,27.53
2018-11-04T01:43:37.082Z,26.07
2018-11-04T01:46:06.288Z,26.20
2018-11-04T01:48:35.578Z,27.00
2018-11-04T01:51:04.797Z,25.57
2018-11-04T01:53:34.026Z,26.07
2018-11-04T01:56:03.268Z,27.50
2018-11-04T01:58:32.513Z,28.80
2018-11-04T02:01:01.896Z,28.10
2018-11-04T02:03:31.115Z,29.57
2018-11-04T02:06:00.282Z,26.80
2018-11-04T02:08:29.612Z,29.63
2018-11-04T02:10:58.791Z,26.93
2018-11-04T02:13:27.982Z,28.15
2018-11-04T02:15:57.247Z,29.20
2018-11-04T02:18:26.449Z,28.47
2018-11-04T02:20:55.671Z,31.43
2018-11-04T02:23:24.975Z,29.80
2018-11-04T02:25:54.205Z,28.50
2018-11-04T02:28:23.525Z,31.50
2018-11-04T02:30:52.698Z,32.70
2018-11-04T02:33:21.868Z,28.30
2018-11-04T02:35:51.052Z,31.07
2018-11-04T02:38:20.458Z,29.37
2018-11-04T02:40:49.854Z,28.87
2018-11-04T02:43:19.052Z,29.10
2018-11-04T02:45:48.317Z,29.57
2018-11-04T02:48:17.522Z,26.53
2018-11-04T02:50:46.743Z,28.07
2018-11-04T02:53:15.977Z,26.73
2018-11-04T02:55:45.230Z,28.50
2018-11-04T02:58:14.540Z,27.27
2018-11-04T03:00:43.831Z,26.20
2018-11-04T03:03:13.016Z,26.33
2018-11-04T03:05:42.195Z,27.40
2018-11-04T03:08:11.432Z,25.50
2018-11-04T03:10:40.591Z,24.17
2018-11-04T03:13:09.842Z,26.97
2018-11-04T03:15:39.041Z,26.47
2018-11-04T03:18:08.199Z,27.00
2018-11-04T03:20:37.398Z,28.00
2018-11-04T03:23:07.175Z,27.93
2018-11-04T03:25:36.366Z,26.73
2018-11-04T03:28:06.001Z,27.57
2018-11-04T03:30:35.557Z,27.10
2018-11-04T03:33:04.747Z,27.30
2018-11-04T03:35:33.926Z,28.67
2018-11-04T03:38:03.126Z,26.80
2018-11-04T03:40:32.307Z,28.30
2018-11-04T03:43:01.480Z,29.47
2018-11-04T03:45:30.727Z,27.27
2018-11-04T03:47:59.919Z,27.03
2018-11-04T03:50:29.184Z,27.77
2018-11-04T03:53:02.495Z,29.27
2018-11-04T03:55:31.664Z,27.87
2018-11-04T03:58:00.915Z,27.10
2018-11-04T04:00:30.107Z,28.50
2018-11-04T04:02:59.335Z,27.37
2018-11-04T04:05:28.740Z,26.10
2018-11-04T04:07:57.995Z,25.53
2018-11-04T04:10:27.140Z,28.27
2018-11-04T04:12:56.636Z,25.83
2018-11-04T04:15:25.908Z,26.57
2018-11-04T04:17:55.107Z,28.30
2018-11-04T04:20:24.316Z,27.23
2018-11-04T04:22:53.544Z,26.03
2018-11-04T04:25:22.746Z,29.00
2018-11-04T04:27:51.975Z,29.70
2018-11-04T04:30:21.167Z,30.20
2018-11-04T04:32:50.319Z,30.70
2018-11-04T04:35:19.511Z,28.03
2018-11-04T04:37:48.659Z,30.40
2018-11-04T04:40:17.814Z,27.93
2018-11-04T04:42:46.975Z,29.73
2018-11-04T04:45:16.173Z,29.40
2018-11-04T04:47:45.345Z,30.53
2018-11-04T04:50:14.575Z,29.27
2018-11-04T04:52:43.830Z,29.90
2018-11-04T04:55:13.058Z,31.07
2018-11-04T04:57:42.309Z,32.28
2018-11-04T05:00:11.563Z,31.27
2018-11-04T05:02:40.741Z,32.47
2018-11-04T05:05:10.044Z,34.03
2018-11-04T05:07:39.266Z,32.67
2018-11-04T05:10:08.575Z,32.10
2018-11-04T05:12:37.780Z,33.33
2018-11-04T05:15:08.420Z,32.83
2018-11-04T05:17:37.772Z,30.63
2018-11-04T05:20:07.023Z,34.93
2018-11-04T05:22:36.223Z,34.37
2018-11-04T05:25:06.279Z,33.20
2018-11-04T05:27:35.569Z,31.87
2018-11-04T05:30:06.198Z,32.60
2018-11-04T05:32:35.369Z,33.60
2018-11-04T05:35:04.735Z,35.20
2018-11-04T05:37:33.972Z,37.20
2018-11-04T05:40:03.206Z,33.63
2018-11-04T05:42:32.404Z,36.37
2018-11-04T05:45:01.801Z,37.73
2018-11-04T05:47:31.026Z,37.53
2018-11-04T05:50:00.258Z,38.50
2018-11-04T05:52:29.561Z,38.30
2018-11-04T05:54:58.763Z,40.37
2018-11-04T05:57:28.024Z,39.70
2018-11-04T05:59:57.252Z,40.43
2018-11-04T06:02:26.604Z,41.90
2018-11-04T06:04:55.776Z,40.10
2018-11-04T06:07:25.007Z,40.73
2018-11-04T06:09:54.211Z,43.00
2018-11-04T06:12:23.410Z,37.50
2018-11-04T06:14:52.699Z,44.47
2018-11-04T06:17:21.880Z,41.98
2018-11-04T06:19:51.131Z,42.17
2018-11-04T06:22:20.340Z,44.57
2018-11-04T06:24:49.572Z,44.23
2018-11-04T06:27:18.854Z,43.87
2018-11-04T06:29:48.030Z,40.93
2018-11-04T06:32:17.283Z,43.90
2018-11-04T06:34:46.565Z,44.37
2018-11-04T06:37:15.795Z,43.58
2018-11-04T06:39:45.024Z,41.60
2018-11-04T06:42:14.216Z,43.23
2018-11-04T06:44:43.475Z,44.93
2018-11-04T06:47:12.755Z,43.93
2018-11-04T06:49:41.960Z,45.80
2018-11-04T06:52:11.280Z,48.60
2018-11-04T06:54:41.202Z,43.70
2018-11-04T06:57:10.424Z,44.80
2018-11-04T06:59:39.643Z,43.50
2018-11-04T07:02:08.852Z,44.80
2018-11-04T07:04:38.079Z,43.90
2018-11-04T07:07:07.510Z,43.67
2018-11-04T07:09:36.723Z,45.47
2018-11-04T07:12:06.337Z,45.07
2018-11-04T07:14:35.556Z,47.13
2018-11-04T07:17:04.884Z,47.67
2018-11-04T07:19:34.145Z,47.30
2018-11-04T07:22:03.355Z,47.70
2018-11-04T07:24:32.595Z,47.60
2018-11-04T07:27:01.864Z,49.50
2018-11-04T07:29:31.286Z,47.53
2018-11-04T07:32:00.579Z,50.53
2018-11-04T07:34:29.761Z,50.13
2018-11-04T07:36:59.023Z,48.00
2018-11-04T07:39:28.246Z,48.10
2018-11-04T07:41:57.442Z,48.60
2018-11-04T07:44:26.752Z,48.57
2018-11-04T07:46:55.950Z,47.63
2018-11-04T07:49:25.253Z,51.13
2018-11-04T07:51:54.678Z,48.97
2018-11-04T07:54:23.912Z,53.37
2018-11-04T07:56:53.205Z,50.80
2018-11-04T07:59:22.442Z,52.80
2018-11-04T08:01:51.669Z,51.83
2018-11-04T08:04:21.020Z,51.70
2018-11-04T08:06:50.463Z,51.98
2018-11-04T08:09:19.747Z,52.23
2018-11-04T08:11:48.973Z,51.67
2018-11-04T08:14:18.289Z,51.60
2018-11-04T08:16:47.466Z,51.23
2018-11-04T08:19:16.643Z,52.20
2018-11-04T08:21:45.854Z,51.30
2018-11-04T08:24:15.067Z,53.27
2018-11-04T08:26:44.343Z,53.80
2018-11-04T08:29:13.562Z,49.67
2018-11-04T08:31:42.939Z,52.70
2018-11-04T08:34:12.211Z,52.57
2018-11-04T08:36:41.881Z,52.80
2018-11-04T08:39:11.541Z,53.28
2018-11-04T08:41:40.755Z,55.60
2018-11-04T08:44:10.011Z,56.00
2018-11-04T08:46:39.199Z,54.13
2018-11-04T08:49:08.539Z,59.27
2018-11-04T08:51:37.902Z,60.00
2018-11-04T08:54:07.142Z,57.43
2018-11-04T08:56:36.426Z,57.07
2018-11-04T08:59:05.895Z,57.00
2018-11-04T09:01:35.107Z,56.83
2018-11-04T09:04:04.531Z,60.40
2018-11-04T09:06:33.889Z,60.20
2018-11-04T09:10:00.517Z,62.67
2018-11-04T09:12:29.845Z,64.40
2018-11-04T09:14:59.097Z,60.00
2018-11-04T09:17:28.310Z,63.87
2018-11-04T09:19:57.546Z,63.10
2018-11-04T09:22:26.860Z,62.97
2018-11-04T09:24:56.918Z,64.90
2018-11-04T09:27:26.325Z,61.08
2018-11-04T09:29:55.649Z,65.70
2018-11-04T09:32:24.896Z,58.90
2018-11-04T09:34:54.265Z,61.60
2018-11-04T09:37:23.440Z,66.00
2018-11-04T09:39:52.785Z,65.33
2018-11-04T09:42:21.970Z,59.38
2018-11-04T09:44:51.165Z,61.00
2018-11-04T09:47:20.482Z,63.10
2018-11-04T09:49:49.702Z,60.07
2018-11-04T09:52:18.965Z,66.07
2018-11-04T09:54:48.266Z,61.77
2018-11-04T09:57:17.509Z,61.13
2018-11-04T09:59:46.969Z,62.30
2018-11-04T10:02:16.154Z,61.80
2018-11-04T10:04:45.348Z,63.83
2018-11-04T10:07:14.760Z,65.23
2018-11-04T10:09:43.957Z,64.97
2018-11-04T10:12:13.181Z,59.93
2018-11-04T10:14:42.480Z,61.77
2018-11-04T10:17:11.793Z,65.17
2018-11-04T10:19:41.230Z,64.63
2018-11-04T10:22:10.408Z,66.27
2018-11-04T10:24:39.716Z,67.13
2018-11-04T10:27:09.440Z,73.47
2018-11-04T10:29:38.732Z,67.90
2018-11-04T10:32:07.992Z,68.30
2018-11-04T10:34:37.343Z,69.07
2018-11-04T10:37:07.020Z,66.47
2018-11-04T10:39:36.262Z,70.97
2018-11-04T10:42:05.694Z,69.57
2018-11-04T10:44:34.938Z,71.07
2018-11-04T10:47:04.184Z,69.60
2018-11-04T10:49:33.588Z,72.20
2018-11-04T10:52:02.675Z,73.60
2018-11-04T10:54:31.869Z,69.87
2018-11-04T10:57:01.558Z,73.93
2018-11-04T10:59:30.962Z,70.30
2018-11-04T11:02:00.140Z,72.13
2018-11-04T11:04:29.388Z,71.23
2018-11-04T11:06:58.620Z,70.07
2018-11-04T11:09:27.818Z,69.83
2018-11-04T11:11:57.019Z,68.27
2018-11-04T11:14:26.205Z,68.27
2018-11-04T11:16:55.433Z,71.43
2018-11-04T11:19:24.898Z,67.90
2018-11-04T11:21:54.194Z,65.73
2018-11-04T11:24:23.457Z,71.83
2018-11-04T11:26:52.719Z,76.23
2018-11-04T11:29:22.015Z,74.30
2018-11-04T11:31:51.278Z,74.27
2018-11-04T11:34:20.596Z,80.63
2018-11-04T11:36:49.810Z,80.80
2018-11-04T11:39:19.125Z,74.80
2018-11-04T11:41:48.402Z,76.50
2018-11-04T11:44:17.714Z,75.63
2018-11-04T11:46:47.039Z,74.30
2018-11-04T11:49:16.287Z,80.32
2018-11-04T11:51:45.588Z,79.70
2018-11-04T11:54:14.785Z,77.57
2018-11-04T11:56:44.153Z,73.73
2018-11-04T11:59:13.419Z,74.47
2018-11-04T12:01:42.584Z,82.33
2018-11-04T12:04:11.987Z,78.93
2018-11-04T12:06:41.199Z,78.10
2018-11-04T12:09:10.631Z,79.80
2018-11-04T12:11:39.864Z,82.67
2018-11-04T12:14:09.122Z,80.13
2018-11-04T12:16:38.374Z,81.10
2018-11-04T12:19:07.823Z,80.00
2018-11-04T12:21:37.157Z,82.70
2018-11-04T12:24:06.529Z,79.80
2018-11-04T12:26:35.954Z,82.20
2018-11-04T12:29:05.645Z,82.93
2018-11-04T12:31:34.974Z,86.03
2018-11-04T12:34:04.249Z,80.37
2018-11-04T12:36:33.489Z,88.30
2018-11-04T12:39:03.062Z,86.17
2018-11-04T12:41:32.327Z,81.02
2018-11-04T12:44:01.674Z,84.80
2018-11-04T12:46:30.963Z,87.83
2018-11-04T12:49:00.247Z,88.47
2018-11-04T12:51:29.613Z,84.47
2018-11-04T12:53:58.824Z,84.30
2018-11-04T12:56:28.132Z,82.63
2018-11-04T12:58:57.588Z,82.20
2018-11-04T13:01:26.767Z,84.60
2018-11-04T13:03:57.233Z,85.63
2018-11-04T13:06:26.518Z,86.30
2018-11-04T13:08:55.731Z,88.50
2018-11-04T13:11:24.966Z,86.33
2018-11-04T13:13:54.187Z,86.00
2018-11-04T13:16:23.514Z,83.30
2018-11-04T13:18:52.711Z,83.63
2018-11-04T13:21:21.976Z,86.77
2018-11-04T13:23:51.251Z,81.03
2018-11-04T13:26:20.498Z,84.40
2018-11-04T13:28:49.721Z,86.67
2018-11-04T13:31:18.981Z,81.50
2018-11-04T13:33:48.307Z,87.97
2018-11-04T13:36:17.593Z,91.67
2018-11-04T13:38:46.912Z,84.80
2018-11-04T13:41:16.149Z,86.80
2018-11-04T13:43:45.390Z,83.13
2018-11-04T13:46:14.763Z,81.10
2018-11-04T13:48:43.973Z,83.57
2018-11-04T13:51:13.371Z,84.50
2018-11-04T13:53:42.615Z,79.83
2018-11-04T13:56:11.968Z,84.57
2018-11-04T13:58:41.283Z,85.63
2018-11-04T14:01:10.499Z,81.97
2018-11-04T14:03:39.735Z,83.80
2018-11-04T14:06:09.297Z,82.33
2018-11-04T14:08:38.556Z,79.53
2018-11-04T14:11:08.135Z,81.77
2018-11-04T14:13:37.410Z,75.70
2018-11-04T14:16:06.702Z,80.93
2018-11-04T14:18:36.083Z,81.83
2018-11-04T14:21:05.665Z,76.60
2018-11-04T14:23:34.897Z,76.77
2018-11-04T14:26:04.216Z,77.00
2018-11-04T14:28:33.522Z,76.77
2018-11-04T14:31:02.845Z,75.33
2018-11-04T14:33:32.238Z,72.00
2018-11-04T14:36:01.458Z,71.77
2018-11-04T14:38:30.750Z,70.97
2018-11-04T14:41:00.002Z,71.07
2018-11-04T14:43:29.283Z,68.03
2018-11-04T14:45:58.523Z,69.23
2018-11-04T14:48:27.752Z,68.10
2018-11-04T14:50:57.083Z,64.50
2018-11-04T14:53:26.370Z,66.30
2018-11-04T14:55:55.607Z,69.27
2018-11-04T14:58:24.857Z,65.63
2018-11-04T15:00:54.056Z,67.97
2018-11-04T15:03:24.434Z,66.77
2018-11-04T15:05:53.716Z,64.10
2018-11-04T15:08:23.124Z,66.00
2018-11-04T15:10:53.333Z,64.83
2018-11-04T15:13:22.612Z,64.77
2018-11-04T15:15:51.850Z,68.40
2018-11-04T15:18:21.184Z,64.73
2018-11-04T15:20:50.496Z,65.40
2018-11-04T15:23:19.715Z,62.33
2018-11-04T15:25:49.064Z,62.30
2018-11-04T15:28:18.310Z,66.37
2018-11-04T15:30:47.590Z,67.17
2018-11-04T15:33:16.934Z,66.50
2018-11-04T15:35:46.271Z,65.87
2018-11-04T15:38:15.528Z,69.73
2018-11-04T15:40:44.828Z,63.20
2018-11-04T15:43:13.979Z,65.00
2018-11-04T15:45:43.207Z,65.90
2018-11-04T15:48:12.581Z,67.50
2018-11-04T15:50:41.855Z,68.23
2018-11-04T15:53:11.287Z,69.12
2018-11-04T15:55:40.838Z,66.57
2018-11-04T15:58:10.122Z,71.63
2018-11-04T16:00:39.403Z,67.67
2018-11-04T16:03:09.013Z,67.50
2018-11-04T16:05:38.351Z,67.33
2018-11-04T16:08:07.649Z,70.50
2018-11-04T16:10:36.963Z,71.20
2018-11-04T16:13:06.251Z,72.37
2018-11-04T16:15:35.622Z,70.87
2018-11-04T16:18:04.975Z,75.07
2018-11-04T16:20:34.265Z,72.57
2018-11-04T16:23:03.429Z,74.63
2018-11-04T16:25:32.669Z,71.10
2018-11-04T16:28:01.863Z,75.80
2018-11-04T16:30:31.127Z,75.23
2018-11-04T16:33:00.404Z,76.07
2018-11-04T16:35:29.607Z,73.57
2018-11-04T16:37:58.884Z,80.73
2018-11-04T16:40:27.978Z,78.30
2018-11-04T16:42:58.071Z,80.47
2018-11-04T16:45:27.323Z,78.80
2018-11-04T16:47:56.787Z,76.50
2018-11-04T16:50:25.970Z,76.50
2018-11-04T16:52:55.154Z,77.70
2018-11-04T16:55:24.361Z,80.83
2018-11-04T16:57:53.615Z,77.10
2018-11-04T17:00:22.835Z,76.37
2018-11-04T17:02:52.021Z,78.30
2018-11-04T17:05:21.339Z,81.42
2018-11-04T17:07:50.542Z,85.00
2018-11-04T17:10:19.812Z,78.00
2018-11-04T17:12:49.105Z,84.45
2018-11-04T17:15:18.370Z,79.93
2018-11-04T17:17:47.901Z,81.57
2018-11-04T17:20:18.218Z,80.63
2018-11-04T17:22:47.577Z,82.57
2018-11-04T17:25:16.866Z,80.62
2018-11-04T17:27:46.179Z,84.37
2018-11-04T17:30:16.940Z,83.70
2018-11-04T17:32:46.562Z,84.40
2018-11-04T17:35:16.710Z,80.40
2018-11-04T17:37:46.638Z,80.57
2018-11-04T17:40:16.700Z,82.23
2018-11-04T17:42:45.991Z,83.90
2018-11-04T17:45:16.423Z,80.93
2018-11-04T17:47:46.246Z,80.97
2018-11-04T17:50:17.015Z,86.33
2018-11-04T17:52:46.343Z,83.47
2018-11-04T17:55:16.309Z,83.40
2018-11-04T17:57:46.070Z,86.93
2018-11-04T18:00:16.468Z,86.43
2018-11-04T18:02:45.723Z,79.67
2018-11-04T18:05:15.109Z,84.57
2018-11-04T18:07:44.847Z,85.20
2018-11-04T18:10:15.499Z,87.70
2018-11-04T18:12:44.773Z,86.77
2018-11-04T18:15:15.032Z,81.80
2018-11-04T18:17:44.439Z,86.10
2018-11-04T18:20:13.957Z,82.57
2018-11-04T18:22:43.202Z,84.93
2018-11-04T18:25:12.934Z,85.40
2018-11-04T18:27:42.241Z,255.20
2018-11-04T18:30:15.368Z,94.73
2018-11-04T18:32:45.288Z,78.30
2018-11-04T18:35:14.707Z,79.80
2018-11-04T18:37:44.061Z,83.80
2018-11-04T18:40:15.533Z,84.93
2018-11-04T18:42:45.212Z,82.80
2018-11-04T18:45:15.719Z,86.67
2018-11-04T18:47:45.293Z,85.67
2018-11-04T18:50:15.295Z,89.60
2018-11-04T18:52:44.634Z,86.40
2018-11-04T18:55:13.812Z,89.60
2018-11-04T18:57:44.196Z,90.50
2018-11-04T19:00:14.850Z,84.77
2018-11-04T19:02:44.483Z,90.10
2018-11-04T19:05:14.034Z,86.83
2018-11-04T19:07:44.880Z,91.23
2018-11-04T19:10:16.842Z,80.93
2018-11-04T19:12:46.170Z,81.80
2018-11-04T19:15:15.536Z,80.17
2018-11-04T19:17:44.820Z,82.83
2018-11-04T19:20:14.972Z,82.27
2018-11-04T19:22:44.322Z,82.27
2018-11-04T19:25:14.464Z,80.30
2018-11-04T19:27:43.710Z,82.30
2018-11-04T19:30:14.866Z,87.27
2018-11-04T19:32:44.645Z,81.00
2018-11-04T19:35:15.192Z,82.77
2018-11-04T19:37:44.363Z,82.63
2018-11-04T19:40:14.675Z,86.80
2018-11-04T19:42:45.105Z,79.30
2018-11-04T19:45:14.532Z,82.87
2018-11-04T19:47:43.778Z,84.87
2018-11-04T19:50:16.726Z,81.70
2018-11-04T19:52:45.977Z,88.60
2018-11-04T19:55:15.219Z,87.10
2018-11-04T19:57:44.434Z,84.53
2018-11-04T20:00:14.168Z,85.13
2018-11-04T20:02:43.337Z,78.90
2018-11-04T20:05:13.282Z,85.63
2018-11-04T20:07:43.029Z,79.67
2018-11-04T20:10:19.281Z,78.93
2018-11-04T20:12:53.982Z,79.13
2018-11-04T20:15:23.366Z,77.43
2018-11-04T20:17:52.721Z,75.50
2018-11-04T20:20:24.026Z,78.83
2018-11-04T20:22:53.434Z,76.93
2018-11-04T20:25:27.977Z,78.00
2018-11-04T20:27:57.214Z,80.30
2018-11-04T20:30:26.547Z,78.07
2018-11-04T20:33:03.871Z,78.57
2018-11-04T20:35:33.319Z,75.87
2018-11-04T20:38:02.745Z,74.27
2018-11-04T20:40:37.323Z,73.87
2018-11-04T20:43:06.864Z,70.53
2018-11-04T20:45:36.114Z,72.80
2018-11-04T20:48:11.058Z,69.37
2018-11-04T20:50:45.599Z,69.67
2018-11-04T20:53:14.925Z,66.33
2018-11-04T20:55:49.404Z,74.60
2018-11-04T20:58:18.718Z,73.13
2018-11-04T21:00:48.977Z,68.90
2018-11-04T21:03:18.176Z,68.00
2018-11-04T21:05:47.439Z,68.50
2018-11-04T21:08:16.791Z,67.80
2018-11-04T21:10:46.065Z,64.77
2018-11-04T21:13:15.362Z,67.90
2018-11-04T21:15:44.642Z,65.27
2018-11-04T21:18:13.914Z,63.27
2018-11-04T21:20:43.745Z,62.78
2018-11-04T21:23:12.991Z,69.80
2018-11-04T21:25:42.432Z,64.77
2018-11-04T21:28:11.591Z,65.60
2018-11-04T21:30:40.890Z,69.20
2018-11-04T21:33:10.262Z,73.63
2018-11-04T21:35:39.514Z,71.60
2018-11-04T21:38:08.822Z,73.93
2018-11-04T21:40:38.035Z,71.20
2018-11-04T21:43:07.634Z,69.70
2018-11-04T21:45:36.628Z,70.90
2018-11-04T21:48:06.353Z,68.53
2018-11-04T21:50:35.606Z,74.80
2018-11-04T21:53:04.821Z,70.53
2018-11-04T21:55:34.361Z,69.82
2018-11-04T21:58:03.457Z,70.83
2018-11-04T22:00:32.728Z,69.90
2018-11-04T22:03:01.990Z,67.50
2018-11-04T22:05:31.219Z,69.00
2018-11-04T22:08:00.437Z,68.40
2018-11-04T22:10:29.726Z,70.07
2018-11-04T22:12:58.862Z,69.70
2018-11-04T22:15:28.082Z,71.60
2018-11-04T22:17:57.282Z,67.23
2018-11-04T22:20:26.456Z,67.90
2018-11-04T22:22:55.625Z,69.50
2018-11-04T22:25:24.865Z,68.13
2018-11-04T22:27:54.056Z,65.30
2018-11-04T22:30:23.254Z,64.00
2018-11-04T22:32:52.396Z,64.10
2018-11-04T22:35:21.582Z,60.33
2018-11-04T22:37:50.789Z,65.33
2018-11-04T22:40:19.966Z,59.90
2018-11-04T22:42:49.412Z,63.43
2018-11-04T22:45:18.597Z,57.50
2018-11-04T22:47:47.807Z,59.10
2018-11-04T22:50:17.015Z,58.67
2018-11-04T22:52:46.299Z,62.43
2018-11-04T22:55:15.670Z,58.50
2018-11-04T22:57:45.340Z,62.17
2018-11-04T23:00:19.699Z,60.57
2018-11-04T23:02:49.990Z,60.47
2018-11-04T23:05:24.357Z,63.28
2018-11-04T23:07:53.606Z,60.30
2018-11-04T23:10:22.834Z,59.00
2018-11-04T23:12:52.024Z,59.77
2018-11-04T23:15:21.223Z,60.10
2018-11-04T23:17:50.357Z,58.10
2018-11-04T23:20:19.588Z,60.47
2018-11-04T23:22:48.798Z,55.23
2018-11-04T23:25:18.056Z,56.67
2018-11-04T23:27:47.327Z,56.97
2018-11-04T23:30:20.666Z,61.40
2018-11-04T23:32:49.908Z,60.87
2018-11-04T23:35:19.180Z,58.77
2018-11-04T23:37:48.389Z,58.40
2018-11-04T23:40:17.611Z,59.07
2018-11-04T23:42:46.833Z,57.40
2018-11-04T23:45:16.166Z,56.47
2018-11-04T23:47:45.344Z,57.87
2018-11-04T23:50:16.509Z,55.27
2018-11-04T23:52:46.141Z,54.97
2018-11-04T23:55:15.813Z,55.50
2018-11-04T23:57:45.013Z,54.77
